Terminal Aerodrome Forecast
Issued by NWS

Home | Current Version | Previous Version | Text Only | Print | Product List | Glossary On
Versions: 1 2 3 4 5 6 7 8 9 10 11 12 13 14 15 16 17 18 19 20 21 22
000
FTAK31 PAJN 010536
TAFAYA
TAF
PAYA 010536Z 0106/0206 14015G25KT P6SM SCT010 SCT015 OVC035
      TEMPO 0106/0110 12010KT 3SM -SHRA BKN010 OVC015
     FM011000 12010KT P6SM -SHRA SCT025 OVC040
      TEMPO 0110/0114 4SM -SHRA BKN025 OVC040
     FM011500 07006KT 4SM -SHRA SCT015 OVC025
      AMD LTD TO CLD VIS AND WIND TIL 010900=

USA.gov is the U.S. government's official web portal to all federal, state and local government web resources and services.